createdAt,value
2022-12-09T00:01:07.139Z,2.41
2022-12-09T00:06:14.035Z,2.31
2022-12-09T00:11:17.979Z,2.23
2022-12-09T00:16:22.162Z,2.26
2022-12-09T00:21:30.589Z,2.22
2022-12-09T00:26:34.669Z,2.11
2022-12-09T00:31:39.492Z,2.05
2022-12-09T00:36:44.177Z,2.02
2022-12-09T00:41:49.245Z,1.96
2022-12-09T00:46:52.415Z,1.98
2022-12-09T00:51:59.893Z,2.01
2022-12-09T00:57:03.301Z,2.03
2022-12-09T01:02:06.368Z,2.02
2022-12-09T01:07:12.492Z,2.02
2022-12-09T01:12:16.285Z,2.01
2022-12-09T01:17:19.525Z,2.03
2022-12-09T01:22:23.863Z,2.05
2022-12-09T01:27:27.695Z,2.12
2022-12-09T01:32:31.133Z,2.20
2022-12-09T01:37:38.374Z,2.26
2022-12-09T01:42:41.399Z,2.38
2022-12-09T01:47:44.587Z,2.30
2022-12-09T01:52:50.566Z,2.25
2022-12-09T01:57:53.694Z,2.24
2022-12-09T02:02:58.075Z,2.21
2022-12-09T02:08:02.804Z,2.23
2022-12-09T02:13:12.330Z,2.23
2022-12-09T02:18:22.423Z,2.14
2022-12-09T02:23:33.172Z,2.16
2022-12-09T02:29:12.565Z,2.13
2022-12-09T02:34:20.421Z,2.14
2022-12-09T02:39:36.620Z,2.12
2022-12-09T02:44:41.831Z,2.16
2022-12-09T02:49:51.940Z,2.05
2022-12-09T02:54:57.372Z,2.11
2022-12-09T03:00:00.696Z,2.12
2022-12-09T03:05:14.273Z,2.15
2022-12-09T03:10:23.002Z,2.15
2022-12-09T03:15:29.846Z,2.13
2022-12-09T03:20:38.647Z,2.16
2022-12-09T03:25:45.544Z,2.14
2022-12-09T03:30:49.784Z,2.15
2022-12-09T03:35:58.186Z,2.15
2022-12-09T03:41:19.721Z,2.13
2022-12-09T03:46:23.929Z,2.09
2022-12-09T03:51:34.712Z,1.97
2022-12-09T03:56:41.756Z,1.79
2022-12-09T04:01:46.449Z,1.55
2022-12-09T04:06:53.858Z,1.49
2022-12-09T04:11:59.793Z,1.38
2022-12-09T04:17:03.456Z,1.29
2022-12-09T04:22:07.867Z,1.35
2022-12-09T04:27:12.726Z,1.48
2022-12-09T04:32:15.864Z,1.61
2022-12-09T04:37:20.268Z,1.57
2022-12-09T04:42:23.310Z,1.48
2022-12-09T04:47:26.357Z,1.59
2022-12-09T04:52:30.831Z,1.66
2022-12-09T04:57:34.092Z,1.67
2022-12-09T05:02:38.130Z,1.51
2022-12-09T05:07:43.108Z,1.55
2022-12-09T05:12:46.436Z,1.64
2022-12-09T05:17:49.838Z,1.52
2022-12-09T05:22:56.696Z,1.27
2022-12-09T05:28:00.583Z,1.02
2022-12-09T05:33:04.233Z,0.86
2022-12-09T05:38:09.054Z,0.75
2022-12-09T05:43:12.114Z,0.69
2022-12-09T05:48:15.627Z,0.67
2022-12-09T05:53:20.388Z,0.64
2022-12-09T05:58:23.586Z,0.57
2022-12-09T06:03:40.952Z,0.46
2022-12-09T06:08:47.304Z,0.52
2022-12-09T06:13:51.349Z,0.73
2022-12-09T06:18:55.175Z,0.97
2022-12-09T06:23:59.987Z,1.02
2022-12-09T06:29:03.603Z,0.80
2022-12-09T06:34:06.902Z,0.70
2022-12-09T06:39:11.464Z,0.52
2022-12-09T06:44:21.747Z,0.39
2022-12-09T06:49:29.432Z,0.25
2022-12-09T06:54:34.069Z,0.16
2022-12-09T06:59:37.548Z,0.05
2022-12-09T07:04:40.729Z,-0.06
2022-12-09T07:09:45.803Z,-0.14
2022-12-09T07:14:49.754Z,-0.23
2022-12-09T07:19:53.510Z,-0.32
2022-12-09T07:24:58.042Z,-0.36
2022-12-09T07:30:01.393Z,-0.43
2022-12-09T07:35:05.172Z,-0.50
2022-12-09T07:40:10.530Z,-0.53
2022-12-09T07:45:14.620Z,-0.56
2022-12-09T07:50:17.907Z,-0.61
2022-12-09T07:55:22.866Z,-0.65
2022-12-09T08:00:28.705Z,-0.70
2022-12-09T08:05:31.855Z,-0.67
2022-12-09T08:10:37.037Z,-0.67
2022-12-09T08:15:40.679Z,-0.68
2022-12-09T08:20:43.817Z,-0.65
2022-12-09T08:25:54.329Z,-0.64
2022-12-09T08:30:58.339Z,-0.64
2022-12-09T08:36:02.014Z,-0.65
2022-12-09T08:41:13.341Z,-0.62
2022-12-09T08:46:17.164Z,-0.56
2022-12-09T08:51:20.907Z,-0.49
2022-12-09T08:56:28.012Z,-0.35
2022-12-09T09:01:35.629Z,-0.30
2022-12-09T09:06:41.491Z,-0.17
2022-12-09T09:11:46.694Z,0.24
2022-12-09T09:16:50.076Z,0.61
2022-12-09T09:21:53.943Z,0.76
2022-12-09T09:26:58.954Z,1.04
2022-12-09T09:32:02.813Z,1.23
2022-12-09T09:37:06.218Z,1.45
2022-12-09T09:42:30.907Z,1.56
2022-12-09T09:47:39.703Z,1.58
2022-12-09T09:52:44.019Z,1.63
2022-12-09T09:57:53.687Z,1.71
2022-12-09T10:03:02.544Z,1.70
2022-12-09T10:08:23.769Z,1.71
2022-12-09T10:13:44.331Z,1.94
2022-12-09T10:19:07.735Z,2.14
2022-12-09T10:24:24.943Z,1.97
2022-12-09T10:29:42.804Z,1.82
2022-12-09T10:34:47.748Z,1.81
2022-12-09T10:39:53.677Z,1.85
2022-12-09T10:45:07.912Z,1.96
2022-12-09T10:50:27.396Z,2.20
2022-12-09T10:55:35.834Z,2.19
2022-12-09T11:00:40.444Z,2.32
2022-12-09T11:05:43.944Z,2.38
2022-12-09T11:10:50.467Z,2.46
2022-12-09T11:15:59.456Z,2.52
2022-12-09T11:21:05.876Z,2.73
2022-12-09T11:26:24.524Z,2.72
2022-12-09T11:31:33.789Z,2.62
2022-12-09T11:36:44.373Z,2.66
2022-12-09T11:42:11.501Z,2.73
2022-12-09T11:47:27.825Z,2.90
2022-12-09T11:52:32.169Z,3.04
2022-12-09T11:57:37.933Z,3.41
2022-12-09T12:02:48.164Z,3.89
2022-12-09T12:08:02.154Z,4.19
2022-12-09T12:13:13.454Z,4.72
2022-12-09T12:18:20.450Z,4.83
2022-12-09T12:23:42.650Z,4.90
2022-12-09T12:29:07.486Z,4.98
2022-12-09T12:34:26.705Z,5.12
2022-12-09T12:39:43.961Z,5.20
2022-12-09T12:45:10.679Z,5.36
2022-12-09T12:50:43.373Z,5.57
2022-12-09T12:55:56.413Z,5.66
2022-12-09T13:01:05.302Z,5.80
2022-12-09T13:06:15.026Z,5.72
2022-12-09T13:11:22.820Z,5.54
2022-12-09T13:16:29.147Z,5.44
2022-12-09T13:21:34.027Z,5.51
2022-12-09T13:26:45.659Z,5.09
2022-12-09T13:31:56.884Z,5.22
2022-12-09T13:37:01.355Z,4.93
2022-12-09T13:42:21.698Z,4.46
2022-12-09T13:47:34.951Z,4.33
2022-12-09T13:52:50.455Z,4.26
2022-12-09T13:58:12.711Z,4.12
2022-12-09T14:03:27.003Z,3.90
2022-12-09T14:08:35.794Z,3.88
2022-12-09T14:13:38.970Z,3.84
2022-12-09T14:18:42.939Z,3.52
2022-12-09T14:24:19.406Z,3.33
2022-12-09T14:29:52.623Z,3.20
2022-12-09T14:35:07.268Z,3.24
2022-12-09T14:40:31.046Z,3.20
2022-12-09T14:45:48.530Z,3.07
2022-12-09T14:51:07.889Z,2.92
2022-12-09T14:56:18.259Z,2.81
2022-12-09T15:01:22.889Z,2.69
2022-12-09T15:06:28.890Z,2.57
2022-12-09T15:11:35.393Z,2.52
2022-12-09T15:16:47.698Z,2.53
2022-12-09T15:21:53.960Z,2.55
2022-12-09T15:27:02.097Z,2.53
2022-12-09T15:32:21.230Z,2.52
2022-12-09T15:37:28.388Z,2.36
2022-12-09T15:42:35.332Z,2.32
2022-12-09T15:47:43.550Z,2.05
2022-12-09T15:52:52.365Z,2.01
2022-12-09T15:58:00.493Z,2.05
2022-12-09T16:03:06.469Z,1.93
2022-12-09T16:08:10.849Z,1.79
2022-12-09T16:13:16.206Z,1.58
2022-12-09T16:18:26.206Z,1.42
2022-12-09T16:23:30.135Z,1.23
2022-12-09T16:28:33.184Z,1.05
2022-12-09T16:33:41.115Z,0.94
2022-12-09T16:39:05.294Z,0.68
2022-12-09T16:44:19.861Z,0.64
2022-12-09T16:49:25.394Z,0.41
2022-12-09T16:54:31.192Z,0.31
2022-12-09T16:59:38.169Z,0.28
2022-12-09T17:04:42.921Z,0.21
2022-12-09T17:09:46.003Z,0.17
2022-12-09T17:14:49.900Z,0.13
2022-12-09T17:19:55.374Z,0.06
2022-12-09T17:24:58.499Z,0.00
2022-12-09T17:30:01.499Z,-0.09
2022-12-09T17:35:12.052Z,-0.10
2022-12-09T17:40:15.797Z,-0.13
2022-12-09T17:45:18.977Z,-0.19
2022-12-09T17:50:23.335Z,-0.24
2022-12-09T17:55:26.418Z,-0.26
2022-12-09T18:00:30.133Z,-0.35
2022-12-09T18:05:37.647Z,-0.34
2022-12-09T18:10:40.757Z,-0.39
2022-12-09T18:15:43.775Z,-0.40
2022-12-09T18:20:48.180Z,-0.48
2022-12-09T18:25:51.305Z,-0.54
2022-12-09T18:30:56.296Z,-0.56
2022-12-09T18:36:00.750Z,-0.61
2022-12-09T18:41:04.688Z,-0.64
2022-12-09T18:46:10.924Z,-0.65
2022-12-09T18:51:20.529Z,-0.70
2022-12-09T18:56:25.136Z,-0.71
2022-12-09T19:01:30.077Z,-0.79
2022-12-09T19:06:35.811Z,-0.81
2022-12-09T19:11:40.651Z,-0.85
2022-12-09T19:16:44.417Z,-0.92
2022-12-09T19:21:49.302Z,-0.92
2022-12-09T19:26:53.876Z,-0.97
2022-12-09T19:31:58.457Z,-0.98
2022-12-09T19:37:03.355Z,-0.98
2022-12-09T19:42:06.439Z,-0.99
2022-12-09T19:47:09.386Z,-1.02
2022-12-09T19:52:14.017Z,-1.01
2022-12-09T19:57:17.032Z,-1.02
2022-12-09T20:02:20.609Z,-1.04
2022-12-09T20:07:25.025Z,-1.06
2022-12-09T20:12:28.140Z,-1.07
2022-12-09T20:17:31.177Z,-1.09
2022-12-09T20:22:35.669Z,-1.10
2022-12-09T20:27:38.647Z,-1.12
2022-12-09T20:32:43.845Z,-1.14
2022-12-09T20:37:48.233Z,-1.15
2022-12-09T20:42:51.209Z,-1.21
2022-12-09T20:47:54.197Z,-1.22
2022-12-09T20:53:01.716Z,-1.25
2022-12-09T20:58:04.719Z,-1.29
2022-12-09T21:03:07.767Z,-1.34
2022-12-09T21:08:12.368Z,-1.33
2022-12-09T21:13:16.012Z,-1.35
2022-12-09T21:18:18.969Z,-1.39
2022-12-09T21:23:33.695Z,-1.42
2022-12-09T21:28:38.800Z,-1.47
2022-12-09T21:33:42.667Z,-1.44
2022-12-09T21:38:47.513Z,-1.46
2022-12-09T21:43:50.575Z,-1.51
2022-12-09T21:49:01.579Z,-1.53
2022-12-09T21:54:07.972Z,-1.52
2022-12-09T21:59:11.949Z,-1.57
2022-12-09T22:04:17.509Z,-1.60
2022-12-09T22:09:21.964Z,-1.69
2022-12-09T22:14:24.965Z,-1.63
2022-12-09T22:19:27.994Z,-1.63
2022-12-09T22:24:32.462Z,-1.64
2022-12-09T22:29:36.801Z,-1.58
2022-12-09T22:34:39.842Z,-1.55
2022-12-09T22:39:45.295Z,-1.47
2022-12-09T22:44:48.459Z,-1.44
2022-12-09T22:49:51.469Z,-1.40
2022-12-09T22:54:55.816Z,-1.40
2022-12-09T22:59:58.915Z,-1.44
2022-12-09T23:05:01.911Z,-1.55
2022-12-09T23:10:07.604Z,-1.55
2022-12-09T23:15:11.879Z,-1.50
2022-12-09T23:20:14.934Z,-1.31
2022-12-09T23:25:19.412Z,-1.05
2022-12-09T23:30:22.392Z,-0.86
2022-12-09T23:35:28.203Z,-0.81
2022-12-09T23:40:32.633Z,-0.78
2022-12-09T23:45:35.708Z,-0.75
2022-12-09T23:50:38.715Z,-0.70
2022-12-09T23:55:44.406Z,-0.65
